Time;durP1;ratioP1;P1;durP2;ratioP2;P2;SDS_P1;SDS_P2;PMS_P1;PMS_P2;Temp;Humidity;BMP_temperature;BMP_pressure;BME280_temperature;BME280_humidity;BME280_pressure;Samples;Min_cycle;Max_cycle;Signal;HPM_P1;HPM_P2
2022/03/26 00:00:22;;;;;;;27.20;22.85;;;10.30;55.80;;;;;;6001892;23;20630;-80
2022/03/26 00:02:50;;;;;;;27.45;23.33;;;10.30;56.00;;;;;;6005339;23;20219;-80
2022/03/26 00:05:18;;;;;;;27.95;21.38;;;10.20;56.00;;;;;;6004626;23;20284;-80
2022/03/26 00:07:45;;;;;;;26.10;21.20;;;10.20;55.90;;;;;;6000221;23;20576;-80
2022/03/26 00:10:13;;;;;;;27.58;22.35;;;10.20;55.90;;;;;;6004989;23;20213;-80
2022/03/26 00:12:40;;;;;;;26.30;22.85;;;10.20;55.90;;;;;;6002793;23;20189;-80
2022/03/26 00:15:08;;;;;;;25.83;21.45;;;10.20;56.00;;;;;;6003755;23;20189;-80
2022/03/26 00:17:37;;;;;;;25.15;20.80;;;10.20;56.00;;;;;;6002812;23;20261;-80
2022/03/26 00:20:05;;;;;;;25.35;22.02;;;10.20;56.00;;;;;;6000888;23;20677;-80
2022/03/26 00:22:33;;;;;;;27.27;21.92;;;10.20;56.00;;;;;;6005400;23;20200;-80
2022/03/26 00:25:00;;;;;;;26.83;20.85;;;10.20;56.60;;;;;;6003757;23;20194;-80
2022/03/26 00:27:27;;;;;;;24.63;20.65;;;10.20;56.10;;;;;;6005139;23;20190;-80
2022/03/26 00:29:54;;;;;;;29.00;21.92;;;10.20;56.20;;;;;;6001872;23;20202;-80
2022/03/26 00:32:21;;;;;;;27.20;20.23;;;10.20;56.10;;;;;;6004397;23;20720;-79
2022/03/26 00:34:50;;;;;;;25.00;21.58;;;10.20;56.20;;;;;;6002094;23;20189;-79
2022/03/26 00:37:18;;;;;;;25.50;21.15;;;10.20;56.30;;;;;;6003874;23;20656;-80
2022/03/26 00:39:45;;;;;;;24.25;21.35;;;10.20;56.40;;;;;;6004087;23;20236;-80
2022/03/26 00:42:11;;;;;;;27.67;21.98;;;10.10;56.60;;;;;;5997308;23;20201;-80
2022/03/26 00:44:39;;;;;;;26.08;20.13;;;10.10;56.70;;;;;;6004771;23;20464;-80
2022/03/26 00:47:07;;;;;;;28.13;21.48;;;10.00;56.70;;;;;;6005392;23;20301;-80
2022/03/26 00:49:34;;;;;;;22.35;19.38;;;10.00;56.90;;;;;;5996611;23;20619;-80
2022/03/26 00:52:03;;;;;;;24.05;20.70;;;10.00;56.90;;;;;;5998929;23;20191;-80
2022/03/26 00:54:32;;;;;;;26.20;20.25;;;9.90;57.80;;;;;;6005098;23;20636;-80
2022/03/26 00:56:59;;;;;;;23.38;19.77;;;9.90;58.00;;;;;;6004089;23;20196;-81
2022/03/26 00:59:27;;;;;;;27.55;20.40;;;9.90;58.10;;;;;;6004554;23;20564;-81
2022/03/26 01:01:54;;;;;;;26.73;21.40;;;9.90;58.20;;;;;;6000278;23;20272;-81
2022/03/26 01:04:21;;;;;;;24.98;21.05;;;10.00;57.50;;;;;;6003731;23;20230;-80
2022/03/26 01:06:48;;;;;;;24.80;20.85;;;9.90;58.30;;;;;;6003315;23;20344;-81
2022/03/26 01:09:16;;;;;;;23.30;20.63;;;9.90;58.60;;;;;;5998731;23;20209;-80
2022/03/26 01:11:43;;;;;;;23.80;21.23;;;9.80;58.50;;;;;;6003381;23;20272;-81
2022/03/26 01:14:10;;;;;;;25.13;20.92;;;9.80;58.70;;;;;;6005069;23;20191;-80
2022/03/26 01:16:38;;;;;;;24.88;20.13;;;9.70;58.90;;;;;;6004548;23;20193;-81
2022/03/26 01:19:05;;;;;;;23.55;19.23;;;9.70;59.10;;;;;;6004330;23;20218;-81
2022/03/26 01:21:32;;;;;;;25.17;19.05;;;9.60;59.30;;;;;;6004755;23;20218;-80
2022/03/26 01:23:59;;;;;;;26.35;21.30;;;9.60;59.40;;;;;;6005463;23;20574;-81
2022/03/26 01:26:27;;;;;;;24.48;20.08;;;9.50;59.40;;;;;;6007270;23;20212;-80
2022/03/26 01:28:54;;;;;;;25.30;21.10;;;9.50;59.60;;;;;;6003864;23;20248;-81
2022/03/26 01:31:22;;;;;;;24.45;20.88;;;9.40;59.80;;;;;;6019814;23;20222;-80
2022/03/26 01:33:50;;;;;;;26.15;19.83;;;9.40;59.90;;;;;;6024976;23;21267;-79
2022/03/26 01:36:18;;;;;;;22.92;19.52;;;9.30;60.00;;;;;;6006538;23;20192;-81
2022/03/26 01:38:45;;;;;;;24.17;20.45;;;9.30;60.30;;;;;;6005164;23;20348;-80
2022/03/26 01:41:13;;;;;;;29.77;22.63;;;9.30;60.50;;;;;;6005239;23;20268;-81
2022/03/26 01:43:42;;;;;;;26.63;20.95;;;9.30;60.80;;;;;;6005692;23;20725;-81
2022/03/26 01:46:11;;;;;;;28.17;21.65;;;9.20;61.10;;;;;;6002568;23;20295;-80
2022/03/26 01:48:38;;;;;;;25.25;21.02;;;9.20;61.40;;;;;;6004841;23;20254;-81
2022/03/26 01:51:15;;;;;;;26.17;21.20;;;9.20;61.50;;;;;;6003548;23;20185;-81
2022/03/26 01:53:47;;;;;;;27.17;20.98;;;9.20;61.30;;;;;;6002119;23;20662;-81
2022/03/26 01:56:16;;;;;;;25.15;20.23;;;9.10;61.30;;;;;;6000402;23;20195;-80
2022/03/26 01:58:45;;;;;;;27.90;21.40;;;9.10;61.60;;;;;;6003179;23;20240;-80
2022/03/26 02:01:13;;;;;;;23.65;20.35;;;9.10;62.20;;;;;;6003145;23;20260;-80
2022/03/26 02:03:40;;;;;;;28.08;21.27;;;9.00;61.60;;;;;;6003316;23;20273;-80
2022/03/26 02:06:07;;;;;;;27.98;22.75;;;9.00;61.90;;;;;;6004055;23;20223;-81
2022/03/26 02:08:34;;;;;;;26.05;20.27;;;9.00;61.90;;;;;;6000350;23;20194;-81
2022/03/26 02:11:02;;;;;;;25.63;20.65;;;8.90;62.10;;;;;;6003210;23;20211;-80
2022/03/26 02:13:52;;;;;;;24.92;20.73;;;8.90;62.30;;;;;;6002902;23;20278;-80
2022/03/26 02:16:19;;;;;;;25.23;20.75;;;8.90;62.50;;;;;;6000326;23;20274;-81
2022/03/26 02:18:46;;;;;;;29.42;21.17;;;8.90;63.20;;;;;;6003861;23;20703;-81
2022/03/26 02:21:14;;;;;;;23.90;20.13;;;8.80;62.60;;;;;;6003677;23;20188;-81
2022/03/26 02:23:42;;;;;;;33.88;20.63;;;8.80;62.80;;;;;;5993750;23;20286;-80
2022/03/26 02:26:09;;;;;;;23.63;18.50;;;8.70;62.70;;;;;;6000789;23;21326;-81
2022/03/26 02:28:36;;;;;;;24.20;20.20;;;8.70;62.80;;;;;;6002499;23;20215;-81
2022/03/26 02:31:03;;;;;;;25.13;19.52;;;8.60;63.00;;;;;;6003016;23;20200;-80
2022/03/26 02:33:30;;;;;;;26.17;19.95;;;8.60;63.10;;;;;;6005496;23;20224;-80
2022/03/26 02:35:58;;;;;;;24.30;19.67;;;8.60;63.70;;;;;;6003005;23;20286;-79
2022/03/26 02:38:26;;;;;;;25.30;20.63;;;8.60;63.70;;;;;;6002197;23;20192;-81
2022/03/26 02:40:53;;;;;;;27.55;21.42;;;8.60;64.10;;;;;;6004090;23;20187;-81
2022/03/26 02:43:20;;;;;;;26.80;21.70;;;8.60;64.20;;;;;;6003989;23;20830;-80
2022/03/26 02:45:47;;;;;;;29.65;21.00;;;8.50;64.30;;;;;;6002363;23;20665;-80
2022/03/26 02:48:14;;;;;;;28.02;20.25;;;8.50;64.60;;;;;;6004375;23;20190;-81
2022/03/26 02:50:41;;;;;;;24.73;20.65;;;8.60;64.90;;;;;;6003672;23;20487;-81
2022/03/26 02:53:09;;;;;;;27.23;21.20;;;8.50;64.80;;;;;;6003154;23;20199;-80
2022/03/26 02:55:38;;;;;;;29.20;22.45;;;8.50;65.10;;;;;;6003170;23;20188;-81
2022/03/26 02:58:07;;;;;;;27.92;20.73;;;8.50;64.90;;;;;;6005875;23;20187;-81
2022/03/26 03:00:34;;;;;;;25.23;19.88;;;8.50;65.20;;;;;;5993574;23;20197;-81
2022/03/26 03:03:02;;;;;;;22.80;19.45;;;8.50;65.20;;;;;;6003186;23;20213;-81
2022/03/26 03:05:29;;;;;;;28.25;22.08;;;8.40;65.50;;;;;;6004647;23;20195;-80
2022/03/26 03:07:56;;;;;;;25.33;20.55;;;8.40;65.80;;;;;;5994346;23;20222;-81
2022/03/26 03:10:23;;;;;;;27.05;21.20;;;8.30;65.80;;;;;;6004603;23;20220;-81
2022/03/26 03:12:52;;;;;;;26.67;20.77;;;8.30;66.00;;;;;;6003831;23;20197;-81
2022/03/26 03:15:18;;;;;;;28.48;22.60;;;8.30;66.30;;;;;;6003700;23;20186;-81
2022/03/26 03:17:48;;;;;;;23.98;19.90;;;8.30;66.50;;;;;;6004716;23;20240;-80
2022/03/26 03:20:16;;;;;;;27.00;20.92;;;8.20;66.70;;;;;;6002506;23;20234;-80
2022/03/26 03:22:44;;;;;;;26.90;21.58;;;8.20;67.10;;;;;;6001794;23;20237;-80
2022/03/26 03:25:12;;;;;;;27.33;21.00;;;8.20;67.40;;;;;;6002847;23;20657;-81
2022/03/26 03:27:40;;;;;;;27.30;20.73;;;8.10;67.40;;;;;;6003311;23;20224;-81
2022/03/26 03:30:11;;;;;;;25.83;20.67;;;8.00;67.80;;;;;;6002218;23;20212;-81
2022/03/26 03:32:38;;;;;;;26.70;21.15;;;8.00;68.10;;;;;;6002508;23;20183;-81
2022/03/26 03:35:06;;;;;;;24.83;19.65;;;8.00;69.20;;;;;;6002915;23;20205;-80
2022/03/26 03:37:37;;;;;;;26.15;20.15;;;7.90;68.70;;;;;;6001826;23;20612;-80
2022/03/26 03:40:06;;;;;;;27.15;20.52;;;7.80;68.70;;;;;;6002321;23;20214;-81
2022/03/26 03:42:34;;;;;;;26.67;20.27;;;7.80;69.30;;;;;;6001667;23;20660;-79
2022/03/26 03:45:01;;;;;;;25.35;19.50;;;7.80;69.80;;;;;;5998405;23;20299;-79
2022/03/26 03:47:29;;;;;;;27.33;19.88;;;7.70;70.30;;;;;;6003127;23;20222;-81
2022/03/26 03:49:56;;;;;;;26.70;20.40;;;7.70;70.80;;;;;;6000647;23;20269;-79
2022/03/26 03:52:23;;;;;;;25.33;19.38;;;7.70;71.20;;;;;;6001665;23;20241;-81
2022/03/26 03:54:50;;;;;;;30.95;22.10;;;7.60;71.50;;;;;;6002263;23;20274;-79
2022/03/26 03:57:17;;;;;;;24.13;19.73;;;7.50;71.60;;;;;;6002481;23;20281;-79
2022/03/26 03:59:44;;;;;;;26.20;21.95;;;7.60;71.70;;;;;;6000910;23;20218;-81
2022/03/26 04:02:11;;;;;;;28.95;20.40;;;7.60;72.20;;;;;;6002680;23;20240;-81
2022/03/26 04:04:41;;;;;;;25.77;20.83;;;7.60;72.20;;;;;;6003107;23;20198;-81
2022/03/26 04:07:10;;;;;;;29.17;21.63;;;7.60;72.30;;;;;;6003598;23;20288;-81
2022/03/26 04:09:37;;;;;;;29.60;21.27;;;7.60;72.80;;;;;;6002412;23;20206;-81
2022/03/26 04:12:05;;;;;;;31.40;21.08;;;7.60;72.90;;;;;;5987531;23;20206;-81
2022/03/26 04:14:32;;;;;;;25.33;19.45;;;7.50;72.90;;;;;;6001555;23;20208;-81
2022/03/26 04:16:59;;;;;;;27.60;21.00;;;7.50;73.10;;;;;;6001029;23;20614;-81
2022/03/26 04:19:27;;;;;;;25.90;21.03;;;7.40;73.60;;;;;;5950847;23;1074324;-81
2022/03/26 04:21:56;;;;;;;25.33;20.98;;;7.40;73.50;;;;;;6004677;23;20531;-81
2022/03/26 04:24:23;;;;;;;29.10;21.60;;;7.40;74.40;;;;;;6011348;23;20272;-82
2022/03/26 04:26:50;;;;;;;27.48;20.63;;;7.30;74.60;;;;;;6025343;23;20202;-80
2022/03/26 04:29:17;;;;;;;26.10;20.50;;;7.30;74.80;;;;;;6000161;23;20214;-81
2022/03/26 04:31:45;;;;;;;28.33;21.02;;;7.30;75.50;;;;;;5999793;23;20240;-82
2022/03/26 04:34:12;;;;;;;26.85;21.20;;;7.20;75.60;;;;;;6004406;23;20206;-81
2022/03/26 04:36:39;;;;;;;29.27;22.05;;;7.20;76.30;;;;;;6002042;23;20237;-81
2022/03/26 04:39:08;;;;;;;26.48;20.40;;;7.20;76.40;;;;;;5998542;23;20298;-81
2022/03/26 04:41:35;;;;;;;30.90;23.42;;;7.10;76.70;;;;;;6004396;23;20197;-81
2022/03/26 04:44:02;;;;;;;24.65;19.98;;;7.10;77.00;;;;;;6004961;23;20257;-81
2022/03/26 04:46:29;;;;;;;27.20;21.60;;;7.00;77.70;;;;;;6000830;23;20265;-81
2022/03/26 04:48:56;;;;;;;28.15;21.17;;;7.00;78.10;;;;;;6004775;23;20708;-81
2022/03/26 04:51:24;;;;;;;28.90;21.58;;;7.00;78.50;;;;;;6002457;23;20184;-81
2022/03/26 04:53:51;;;;;;;30.17;22.23;;;7.00;79.30;;;;;;5999059;23;20197;-81
2022/03/26 04:56:19;;;;;;;26.40;20.90;;;6.90;79.90;;;;;;5993115;23;20191;-81
2022/03/26 04:58:46;;;;;;;27.73;21.30;;;6.80;80.00;;;;;;6005279;23;20203;-81
2022/03/26 05:01:13;;;;;;;27.63;21.80;;;6.80;80.50;;;;;;6001974;23;20744;-81
2022/03/26 05:03:40;;;;;;;30.27;21.42;;;6.80;81.00;;;;;;6002940;23;20182;-81
2022/03/26 05:06:06;;;;;;;28.08;21.05;;;6.70;81.30;;;;;;6001416;23;20214;-81
2022/03/26 05:08:33;;;;;;;26.65;20.20;;;6.70;81.70;;;;;;6004496;23;20217;-81
2022/03/26 05:11:01;;;;;;;27.88;21.20;;;6.60;82.00;;;;;;6004102;23;20261;-81
2022/03/26 05:13:29;;;;;;;26.55;20.90;;;6.60;82.60;;;;;;5993612;23;20188;-81
2022/03/26 05:15:56;;;;;;;28.90;20.27;;;6.60;83.10;;;;;;6003693;23;20261;-80
2022/03/26 05:18:23;;;;;;;27.17;21.30;;;6.60;83.90;;;;;;6004094;23;20210;-81
2022/03/26 05:20:49;;;;;;;25.73;20.48;;;6.50;84.20;;;;;;6004680;23;20265;-81
2022/03/26 05:23:17;;;;;;;29.48;21.77;;;6.50;84.30;;;;;;6004643;23;20205;-81
2022/03/26 05:25:44;;;;;;;28.90;21.60;;;6.50;84.60;;;;;;6001818;23;20183;-81
2022/03/26 05:28:11;;;;;;;28.67;21.23;;;6.60;85.00;;;;;;6000789;23;20237;-81
2022/03/26 05:30:40;;;;;;;27.30;20.77;;;6.60;84.80;;;;;;6004883;23;20257;-81
2022/03/26 05:33:07;;;;;;;27.30;21.00;;;6.70;85.10;;;;;;5998832;23;20194;-81
2022/03/26 05:35:34;;;;;;;25.42;20.92;;;6.70;85.70;;;;;;5993457;23;20262;-81
2022/03/26 05:38:02;;;;;;;25.65;20.40;;;6.70;85.60;;;;;;6003851;23;20319;-81
2022/03/26 05:40:29;;;;;;;29.75;21.17;;;6.70;85.80;;;;;;6000676;23;20200;-79
2022/03/26 05:42:56;;;;;;;32.67;21.05;;;6.70;86.20;;;;;;6003971;23;20217;-80
2022/03/26 05:45:23;;;;;;;27.35;20.13;;;6.80;86.70;;;;;;6002883;23;20190;-80
2022/03/26 05:47:56;;;;;;;24.77;19.00;;;6.80;87.00;;;;;;6002832;23;20218;-80
2022/03/26 05:50:23;;;;;;;29.02;20.83;;;6.80;86.90;;;;;;6003553;23;20271;-80
2022/03/26 05:52:50;;;;;;;27.70;22.02;;;6.90;86.90;;;;;;6005285;23;20186;-80
2022/03/26 05:55:17;;;;;;;26.70;20.88;;;7.00;86.90;;;;;;6003661;23;20286;-80
2022/03/26 05:57:44;;;;;;;27.00;21.77;;;7.00;86.50;;;;;;6002605;23;20186;-80
2022/03/26 06:00:12;;;;;;;26.40;21.02;;;7.10;86.50;;;;;;5998451;23;20253;-80
2022/03/26 06:02:39;;;;;;;25.30;21.23;;;7.20;86.20;;;;;;6000697;23;20217;-81
2022/03/26 06:05:08;;;;;;;27.95;21.75;;;7.30;86.00;;;;;;6001534;23;20214;-80
2022/03/26 06:07:36;;;;;;;27.67;21.00;;;7.40;86.20;;;;;;6003484;23;20214;-80
2022/03/26 06:10:04;;;;;;;27.58;21.55;;;7.50;85.90;;;;;;5995544;23;20267;-80
2022/03/26 06:12:31;;;;;;;28.80;22.67;;;7.60;85.40;;;;;;6004018;23;20223;-80
2022/03/26 06:14:58;;;;;;;28.23;21.50;;;7.80;84.80;;;;;;6004039;23;20198;-80
2022/03/26 06:17:25;;;;;;;27.25;21.98;;;7.90;84.20;;;;;;5994752;23;22038;-80
2022/03/26 06:19:52;;;;;;;27.20;22.05;;;8.10;83.60;;;;;;5991965;23;20217;-80
2022/03/26 06:22:20;;;;;;;26.83;21.80;;;8.40;82.70;;;;;;5994098;23;20192;-79
2022/03/26 06:24:47;;;;;;;27.90;21.90;;;8.90;80.90;;;;;;5988236;23;20192;-80
2022/03/26 06:27:15;;;;;;;24.85;20.25;;;9.40;78.40;;;;;;5994472;23;20290;-80
2022/03/26 06:29:42;;;;;;;28.13;21.50;;;10.00;74.70;;;;;;5994938;23;20217;-80
2022/03/26 06:32:10;;;;;;;25.15;20.60;;;10.60;72.50;;;;;;5992031;23;20313;-80
2022/03/26 06:34:37;;;;;;;23.35;19.55;;;11.20;70.60;;;;;;5995239;23;20187;-80
2022/03/26 06:37:04;;;;;;;25.05;21.20;;;11.80;68.30;;;;;;5995647;23;20186;-81
2022/03/26 06:39:32;;;;;;;27.38;22.63;;;12.40;66.10;;;;;;5992216;23;20210;-81
2022/03/26 06:42:00;;;;;;;24.88;22.08;;;12.90;64.10;;;;;;5998970;23;20194;-82
2022/03/26 06:44:27;;;;;;;24.55;20.83;;;13.20;62.60;;;;;;5995663;23;20274;-80
2022/03/26 06:46:54;;;;;;;27.77;20.87;;;13.60;61.10;;;;;;5995092;23;20265;-80
2022/03/26 06:49:21;;;;;;;24.70;20.47;;;13.90;60.00;;;;;;5990498;23;20694;-80
2022/03/26 06:51:48;;;;;;;24.20;20.73;;;14.10;59.20;;;;;;5988610;23;20445;-79
2022/03/26 06:54:15;;;;;;;22.97;20.43;;;14.50;58.40;;;;;;5994870;23;20524;-80
2022/03/26 06:56:44;;;;;;;24.97;20.13;;;15.00;57.30;;;;;;5992552;23;20454;-79
2022/03/26 06:59:10;;;;;;;22.30;19.90;;;15.40;56.00;;;;;;5997248;23;20888;-79
2022/03/26 07:01:38;;;;;;;23.20;20.70;;;15.60;55.00;;;;;;5997702;23;20449;-80
2022/03/26 07:04:05;;;;;;;22.10;19.63;;;15.90;54.60;;;;;;5997490;23;20434;-79
2022/03/26 07:06:32;;;;;;;25.83;20.00;;;16.20;53.80;;;;;;5998551;23;21004;-78
2022/03/26 07:09:00;;;;;;;23.57;20.33;;;16.30;53.40;;;;;;6001722;23;20575;-79
2022/03/26 07:11:27;;;;;;;23.70;20.53;;;16.60;52.50;;;;;;5996720;23;20441;-79
2022/03/26 07:13:55;;;;;;;24.43;21.77;;;16.80;51.70;;;;;;5996795;23;20472;-79
2022/03/26 07:16:22;;;;;;;24.97;21.17;;;16.80;51.80;;;;;;5995999;23;20924;-80
2022/03/26 07:18:49;;;;;;;23.97;21.40;;;16.80;51.70;;;;;;6011317;23;20479;-78
2022/03/26 07:21:16;;;;;;;23.40;21.00;;;17.00;51.20;;;;;;6014651;23;20437;-84
2022/03/26 07:23:43;;;;;;;23.40;20.90;;;17.20;50.60;;;;;;5988569;23;20480;-80
2022/03/26 07:26:10;;;;;;;24.60;20.50;;;17.40;49.60;;;;;;6002543;23;20441;-79
2022/03/26 07:28:37;;;;;;;20.50;16.70;;;17.50;51.10;;;;;;5999617;23;20495;-79
2022/03/26 07:31:06;;;;;;;17.87;15.47;;;17.70;55.20;;;;;;6002434;23;20445;-79
2022/03/26 07:33:33;;;;;;;22.33;17.60;;;18.00;54.00;;;;;;5996035;23;20524;-81
2022/03/26 07:36:00;;;;;;;23.10;20.70;;;18.40;51.90;;;;;;5998535;23;20532;-79
2022/03/26 07:38:27;;;;;;;24.30;20.50;;;18.90;48.70;;;;;;6002005;23;20487;-81
2022/03/26 07:40:54;;;;;;;26.03;22.07;;;19.40;47.80;;;;;;5998827;23;20442;-82
2022/03/26 07:43:21;;;;;;;25.87;21.67;;;19.70;46.50;;;;;;5996737;23;20465;-86
2022/03/26 07:45:48;;;;;;;21.87;19.60;;;20.00;45.80;;;;;;6001366;23;20789;-88
2022/03/26 07:48:17;;;;;;;21.63;19.33;;;20.30;44.90;;;;;;5997546;23;20497;-88
2022/03/26 07:50:44;;;;;;;22.40;20.03;;;20.50;44.70;;;;;;6000883;23;20575;-89
2022/03/26 07:53:12;;;;;;;22.97;20.50;;;20.50;44.40;;;;;;5996558;23;20455;-87
2022/03/26 07:55:39;;;;;;;22.43;19.40;;;20.80;44.10;;;;;;5983637;23;20453;-82
2022/03/26 07:58:07;;;;;;;22.97;20.23;;;21.20;43.40;;;;;;6002699;23;20892;-82
2022/03/26 08:00:34;;;;;;;24.17;21.30;;;21.30;43.00;;;;;;5995814;23;20533;-90
2022/03/26 08:03:01;;;;;;;22.43;20.27;;;21.30;42.80;;;;;;5999988;23;20438;-82
2022/03/26 08:05:29;;;;;;;22.73;20.30;;;21.40;42.70;;;;;;5998660;23;20476;-81
2022/03/26 08:07:56;;;;;;;22.80;20.50;;;21.70;42.50;;;;;;6000245;23;20482;-81
2022/03/26 08:10:23;;;;;;;23.10;20.67;;;21.70;42.20;;;;;;6004631;23;20445;-81
2022/03/26 08:12:50;;;;;;;22.70;20.40;;;21.90;42.40;;;;;;6005029;23;20529;-82
2022/03/26 08:15:17;;;;;;;22.43;20.37;;;22.20;41.80;;;;;;5998574;23;20440;-81
2022/03/26 08:17:45;;;;;;;23.50;21.20;;;22.30;41.50;;;;;;6005517;23;20464;-81
2022/03/26 08:20:12;;;;;;;22.77;20.57;;;22.60;41.40;;;;;;6003728;23;20952;-82
2022/03/26 08:22:42;;;;;;;22.57;20.30;;;23.00;41.00;;;;;;6004830;23;20453;-81
2022/03/26 08:25:10;;;;;;;24.20;21.73;;;23.50;40.80;;;;;;6003893;23;20536;-82
2022/03/26 08:27:37;;;;;;;23.63;21.20;;;23.60;39.80;;;;;;6004105;23;20493;-80
2022/03/26 08:30:07;;;;;;;24.00;21.60;;;23.80;40.00;;;;;;6004265;23;20445;-81
2022/03/26 08:32:36;;;;;;;24.03;21.57;;;24.00;39.60;;;;;;6002160;23;21097;-81
2022/03/26 08:35:03;;;;;;;24.07;21.57;;;24.20;39.10;;;;;;6002208;23;20449;-81
2022/03/26 08:37:30;;;;;;;26.07;22.67;;;24.20;39.40;;;;;;6004070;23;20469;-81
2022/03/26 08:39:58;;;;;;;25.10;22.57;;;23.90;38.40;;;;;;6005039;23;20441;-81
2022/03/26 08:42:25;;;;;;;23.53;21.03;;;23.60;39.30;;;;;;6003312;23;20445;-80
2022/03/26 08:44:52;;;;;;;23.70;21.30;;;23.70;39.30;;;;;;6001311;23;20501;-88
2022/03/26 08:47:20;;;;;;;24.20;21.30;;;23.80;39.20;;;;;;6003217;23;20538;-87
2022/03/26 08:49:47;;;;;;;24.47;22.07;;;24.20;39.40;;;;;;6004421;23;20515;-88
2022/03/26 08:52:14;;;;;;;24.10;21.70;;;24.40;39.40;;;;;;6004362;23;20476;-89
2022/03/26 08:54:41;;;;;;;24.10;21.60;;;24.50;39.70;;;;;;5998143;23;20441;-88
2022/03/26 08:57:09;;;;;;;24.63;22.27;;;24.80;39.40;;;;;;6004932;23;20851;-93
2022/03/26 08:59:36;;;;;;;25.40;22.80;;;24.90;39.60;;;;;;6000043;23;20975;-90
2022/03/26 09:02:04;;;;;;;25.20;22.67;;;25.10;39.10;;;;;;6011081;23;20526;-79
2022/03/26 09:04:31;;;;;;;25.77;23.20;;;24.60;39.10;;;;;;6046262;23;20439;-80
2022/03/26 09:06:57;;;;;;;25.23;22.60;;;24.40;39.30;;;;;;6049433;23;20456;-81
2022/03/26 09:09:25;;;;;;;25.00;22.60;;;24.50;39.10;;;;;;6025422;23;21180;-80
2022/03/26 09:11:53;;;;;;;26.30;23.20;;;24.80;39.60;;;;;;6019221;23;20803;-81
2022/03/26 09:14:21;;;;;;;24.57;22.20;;;25.00;38.90;;;;;;6025526;23;20452;-80
2022/03/26 09:16:48;;;;;;;25.40;23.00;;;25.20;39.20;;;;;;6016379;23;20531;-80
2022/03/26 09:19:15;;;;;;;26.00;23.43;;;25.40;38.80;;;;;;6015509;23;20447;-80
2022/03/26 09:21:42;;;;;;;25.43;23.03;;;25.80;38.80;;;;;;6007525;23;20433;-80
2022/03/26 09:24:09;;;;;;;24.63;22.13;;;26.00;38.50;;;;;;6017691;23;20478;-80
2022/03/26 09:26:36;;;;;;;25.60;23.20;;;26.40;37.90;;;;;;6019896;23;20920;-81
2022/03/26 09:29:03;;;;;;;25.30;22.90;;;26.60;37.90;;;;;;6022881;23;20495;-80
2022/03/26 09:31:32;;;;;;;24.80;22.33;;;27.10;37.60;;;;;;6024340;23;20982;-81
2022/03/26 09:33:59;;;;;;;23.70;21.40;;;27.20;37.00;;;;;;6018018;23;20532;-81
2022/03/26 09:36:26;;;;;;;26.90;24.10;;;27.00;37.50;;;;;;6016780;23;20436;-79
2022/03/26 09:38:53;;;;;;;25.10;22.67;;;27.20;36.70;;;;;;6024266;23;20530;-80
2022/03/26 09:41:22;;;;;;;26.23;23.63;;;27.00;37.40;;;;;;6018348;23;20506;-80
2022/03/26 09:43:50;;;;;;;26.33;23.67;;;27.10;36.90;;;;;;6025763;23;20460;-81
2022/03/26 09:46:17;;;;;;;25.43;23.03;;;27.20;37.70;;;;;;6020778;23;20473;-81
2022/03/26 09:48:46;;;;;;;25.23;22.83;;;27.20;37.80;;;;;;6021227;23;20471;-81
2022/03/26 09:51:15;;;;;;;29.50;24.23;;;27.40;37.10;;;;;;6014059;23;20513;-80
2022/03/26 09:53:42;;;;;;;27.33;24.60;;;27.40;36.60;;;;;;6022561;23;20443;-81
2022/03/26 09:56:12;;;;;;;26.80;24.20;;;27.50;35.90;;;;;;6022214;23;20844;-81
2022/03/26 09:58:39;;;;;;;27.23;24.40;;;27.60;36.00;;;;;;6026481;23;20656;-80
2022/03/26 10:01:06;;;;;;;25.50;23.03;;;27.40;35.60;;;;;;6022819;23;20507;-81
2022/03/26 10:03:35;;;;;;;25.10;22.70;;;27.80;36.10;;;;;;6025222;23;22433;-81
2022/03/26 10:06:05;;;;;;;25.63;23.07;;;28.20;35.70;;;;;;6015775;23;20522;-80
2022/03/26 10:08:35;;;;;;;24.37;22.17;;;28.60;35.40;;;;;;6022717;23;20807;-80
2022/03/26 10:11:02;;;;;;;27.57;24.97;;;28.90;35.10;;;;;;6024573;23;20845;-81
2022/03/26 10:13:38;;;;;;;26.27;23.77;;;29.10;34.30;;;;;;6020871;23;20440;-81
2022/03/26 10:16:07;;;;;;;28.63;25.83;;;29.00;35.00;;;;;;6007370;23;20593;-82
2022/03/26 10:18:39;;;;;;;25.30;23.00;;;29.20;34.70;;;;;;6023567;23;20440;-82
2022/03/26 10:21:13;;;;;;;27.37;24.57;;;29.50;34.60;;;;;;6018505;23;21191;-82
2022/03/26 10:23:43;;;;;;;25.83;23.43;;;29.10;34.60;;;;;;6027332;23;20468;-82
2022/03/26 10:26:13;;;;;;;26.17;23.77;;;29.00;34.50;;;;;;6021764;23;20435;-81
2022/03/26 10:28:41;;;;;;;25.70;23.20;;;29.20;34.20;;;;;;6021538;23;20540;-81
2022/03/26 10:34:07;;;;;;;26.33;23.73;;;29.70;33.80;;;;;;6019840;23;20432;-81
2022/03/26 10:36:41;;;;;;;27.83;25.13;;;29.80;33.60;;;;;;6025002;23;20791;-81
2022/03/26 10:39:14;;;;;;;27.03;24.33;;;29.90;33.40;;;;;;6025025;23;20520;-80
2022/03/26 10:41:41;;;;;;;26.43;23.73;;;29.70;32.90;;;;;;6026079;23;20455;-81
2022/03/26 10:44:10;;;;;;;25.83;23.33;;;29.60;33.10;;;;;;6021111;23;20875;-80
2022/03/26 10:46:47;;;;;;;26.87;24.17;;;29.20;33.50;;;;;;6009331;23;20531;-80
2022/03/26 10:49:15;;;;;;;25.60;22.90;;;28.90;33.20;;;;;;6019401;23;20499;-81
2022/03/26 10:51:43;;;;;;;24.80;22.40;;;28.60;33.20;;;;;;6023609;23;20445;-81
2022/03/26 10:54:12;;;;;;;25.17;22.67;;;28.50;33.70;;;;;;6003535;23;20447;-81
2022/03/26 10:56:40;;;;;;;25.13;22.80;;;28.70;33.60;;;;;;6024391;23;20873;-80
2022/03/26 10:59:08;;;;;;;23.07;20.70;;;28.90;32.50;;;;;;6030218;23;20480;-80
2022/03/26 11:01:35;;;;;;;23.73;21.10;;;29.10;32.00;;;;;;6030126;23;20456;-79
2022/03/26 11:04:04;;;;;;;22.50;20.40;;;29.00;31.80;;;;;;6032918;23;20946;-80
2022/03/26 11:06:37;;;;;;;21.37;19.33;;;29.00;31.40;;;;;;6031441;23;20559;-80
2022/03/26 11:09:07;;;;;;;21.90;19.80;;;28.90;32.00;;;;;;6023800;23;20506;-81
2022/03/26 11:11:35;;;;;;;21.50;19.60;;;29.00;31.20;;;;;;6031958;23;20451;-80
2022/03/26 11:14:05;;;;;;;22.50;20.20;;;29.10;31.20;;;;;;6021244;23;20441;-81
2022/03/26 11:16:42;;;;;;;21.20;19.30;;;29.30;31.00;;;;;;6025036;23;20471;-80
2022/03/26 11:19:21;;;;;;;21.30;19.30;;;29.30;30.80;;;;;;6031913;23;20532;-81
2022/03/26 11:22:05;;;;;;;21.30;19.30;;;28.80;30.30;;;;;;6032470;23;20451;-81
2022/03/26 11:25:08;;;;;;;21.17;19.23;;;28.70;30.30;;;;;;6031791;23;20450;-81
2022/03/26 11:27:49;;;;;;;24.00;21.80;;;29.00;30.70;;;;;;6030894;23;20460;-81
2022/03/26 11:30:24;;;;;;;20.40;18.63;;;29.10;30.40;;;;;;6031302;23;20559;-81
2022/03/26 11:32:52;;;;;;;20.03;18.23;;;29.30;30.30;;;;;;6030001;23;20454;-81
2022/03/26 11:35:20;;;;;;;18.70;17.00;;;29.40;29.80;;;;;;6028697;23;20444;-80
2022/03/26 11:37:52;;;;;;;20.87;18.87;;;29.00;29.40;;;;;;6027026;23;20542;-82
2022/03/26 11:40:42;;;;;;;21.57;19.47;;;28.80;29.70;;;;;;6033767;23;20523;-81
2022/03/26 11:43:09;;;;;;;21.23;19.03;;;27.90;29.70;;;;;;6031135;23;20452;-81
2022/03/26 11:51:22;;;;;;;20.07;18.13;;;27.00;31.20;;;;;;6028921;23;20452;-81
2022/03/26 11:53:52;;;;;;;19.47;17.67;;;27.30;30.90;;;;;;6022910;23;20448;-81
2022/03/26 11:56:24;;;;;;;19.20;17.60;;;27.80;31.00;;;;;;6025436;23;20468;-82
2022/03/26 11:59:05;;;;;;;20.67;18.70;;;28.20;30.80;;;;;;6026867;23;20448;-81
2022/03/26 12:01:37;;;;;;;20.17;18.30;;;28.50;30.60;;;;;;6032296;23;20566;-81
2022/03/26 12:04:10;;;;;;;20.13;18.03;;;28.80;30.50;;;;;;6024450;23;20503;-81
2022/03/26 12:06:47;;;;;;;18.63;16.87;;;29.10;29.60;;;;;;6031171;23;20460;-81
2022/03/26 12:09:29;;;;;;;18.47;16.77;;;28.60;29.40;;;;;;6030248;23;21050;-82
2022/03/26 12:12:17;;;;;;;19.00;17.20;;;28.40;29.80;;;;;;6030740;23;20432;-81
2022/03/26 12:15:23;;;;;;;19.20;17.40;;;28.70;30.00;;;;;;6033148;23;20522;-82
2022/03/26 12:17:52;;;;;;;19.23;17.37;;;29.00;29.50;;;;;;6029761;23;20954;-81
2022/03/26 12:20:22;;;;;;;19.87;17.87;;;28.90;29.70;;;;;;6031762;23;20444;-82
2022/03/26 12:22:51;;;;;;;19.00;17.30;;;27.70;30.00;;;;;;6030792;23;20531;-82
2022/03/26 12:25:18;;;;;;;18.37;16.60;;;27.70;31.00;;;;;;6031531;23;20440;-82
2022/03/26 12:27:47;;;;;;;18.67;17.10;;;28.20;30.40;;;;;;6031231;23;20452;-82
2022/03/26 12:30:14;;;;;;;19.53;17.53;;;28.80;30.00;;;;;;6031619;23;20475;-82
2022/03/26 12:32:42;;;;;;;18.77;17.03;;;28.60;29.90;;;;;;6032686;23;20668;-82
2022/03/26 12:35:10;;;;;;;17.67;16.07;;;28.80;29.90;;;;;;6030437;23;20470;-82
2022/03/26 12:37:38;;;;;;;18.13;16.23;;;29.00;30.00;;;;;;6032018;23;20463;-82
2022/03/26 12:40:08;;;;;;;19.20;17.50;;;29.00;29.90;;;;;;6029619;23;20491;-82
2022/03/26 12:42:36;;;;;;;19.03;17.03;;;29.10;29.70;;;;;;6032848;23;20506;-82
2022/03/26 12:45:14;;;;;;;18.13;16.50;;;29.10;29.60;;;;;;6032398;23;20444;-82